METAR Data
IDs: Format: Raw Decoded Include TAF

Data at: 0259 UTC 19 Oct 2021

PAGK 190253Z AUTO 00000KT 10SM OVC100 M04/M06 A2969 RMK AO2 SLP091 T10391061 58005 TSNO
PAGK 190153Z AUTO 00000KT 10SM BKN090 OVC100 M04/M07 A2969 RMK AO2 SLP091 T10391067 TSNO
PAGK 190053Z AUTO 00000KT 10SM OVC110 M03/M07 A2970 RMK AO2 SLP093 T10331067 TSNO
PAGK 182353Z AUTO 00000KT 10SM BKN090 M03/M07 A2970 RMK AO2 SLP093 T10331067 11033 21072 56007 TSNO
PAGK 182253Z AUTO 00000KT 10SM FEW100 M04/M07 A2970 RMK AO2 SLP093 T10441072 TSNO
PAGK 182153Z AUTO 00000KT 10SM CLR M05/M08 A2971 RMK AO2 SLP097 T10501078 TSNO
PAGK 182053Z AUTO 12004KT 10SM CLR M06/M08 A2972 RMK AO2 SLP101 T10561083 51004 TSNO
PAGK 181853Z AUTO 01003KT 10SM CLR M06/M09 A2972 RMK AO2 SLP098 T10611094 TSNO
PAGK 181753Z AUTO 35003KT 10SM SCT110 M07/M10 A2971 RMK AO2 SLP097 T10721100 11056 21089 TSNO
PAGK 181653Z AUTO 33003KT 10SM M07/M10 A2971 RMK AO2 SLP095 T10721100 TSNO
PAGK 181553Z AUTO 35004KT 10SM FEW110 M07/M10 A2969 RMK AO2 SLP090 T10721100 TSNO
PAGK 181453Z AUTO 32005KT 10SM BKN110 M08/M10 A2968 RMK AO2 SLP087 T10831100 53008 TSNO
PAGK 181353Z AUTO 33004KT 10SM CLR M07/M10 A2967 RMK AO2 SLP081 T10721100 TSNO
PAGK 181253Z AUTO 33004KT 10SM CLR M07/M09 A2966 RMK AO2 SLP076 T10671089 TSNO
PAGK 181153Z AUTO 32003KT 10SM SCT100 BKN120 M06/M08 A2966 RMK AO2 SLP074 T10561083 11028 21056 51009 TSNO
PAGK 181053Z AUTO 33003KT 10SM OVC100 M05/M08 A2965 RMK AO2 SLP075 T10501078 TSNO
PAGK 180953Z AUTO 02006KT 10SM CLR M05/M08 A2964 RMK AO2 SLP071 T10501083 TSNO
PAGK 180853Z AUTO 36007KT 10SM BKN085 M04/M08 A2963 RMK AO2 SLP068 T10441078 410061100 51011 TSNO
PAGK 180753Z AUTO 35006KT 10SM FEW100 M04/M08 A2962 RMK AO2 SLP067 T10441078 TSNO
PAGK 180653Z AUTO 01009KT 10SM SCT085 M03/M07 A2961 RMK AO2 SLP063 T10331072 TSNO
PAGK 180553Z AUTO 02006KT 10SM OVC100 M03/M07 A2960 RMK AO2 SLP058 T10281067 11006 21033 51012 TSNO
PAGK 180353Z AUTO 04006KT 10SM OVC080 M02/M06 A2958 RMK AO2 SLP051 T10221061 TSNO
PAGK 180253Z AUTO 03006KT 10SM SCT075 BKN110 M03/M06 A2956 RMK AO2 SLP044 T10281061 53003 TSNO
PAGK 180053Z AUTO 06004KT 10SM OVC110 M01/M05 A2954 RMK AO2 SLP035 T10061050 TSNO
PAGK 172353Z AUTO 02005KT 10SM OVC110 M02/M05 A2955 RMK AO2 SLP037 T10171050 11011 21089 55006 TSNO
PAGK 172253Z AUTO 01004KT 10SM SCT090 M03/M06 A2955 RMK AO2 SLP036 T10281061 TSNO
PAGK 172153Z AUTO 36004KT 10SM OVC110 M04/M07 A2956 RMK AO2 SLP041 T10391067 TSNO
PAGK 172053Z AUTO 01004KT 10SM OVC100 M05/M08 A2957 RMK AO2 SLP047 T10501078 58005 TSNO
PAGK 171953Z AUTO 35004KT 10SM BKN100 M07/M09 A2958 RMK AO2 SLP053 T10671094 TSNO
PAGK 171853Z AUTO 35004KT 10SM OVC095 M08/M10 A2958 RMK AO2 SLP053 T10781100 TSNO
PAGK 171753Z AUTO 01006KT 10SM CLR M09/M11 A2959 RMK AO2 SLP056 T10891111 11050 21100 56011 TSNO
PAGK 171653Z AUTO 01007KT 10SM CLR M09/M11 A2959 RMK AO2 SLP060 T10941111 TSNO
PAGK 171553Z AUTO 36007KT 10SM CLR M09/M11 A2960 RMK AO2 SLP063 T10891106 TSNO